Bridgeport, TX (76426)

8:55 AM CDT on July 29, 2016 (GMT -0500)
lake bridgeport | | Change Station

Elev 879 ft 33.22 °N, 97.83 °W | Updated 14 seconds ago

Overcast
Overcast
79.7 °F
Feels Like 81 °F
N
2.7
Wind Variable Wind from SSW
Gusts 4.9 mph

Today
High -- | Low -- °F
--% Chance of Precip.
Yesterday
High -- | Low -- °F
Precip. -- in
Pressure 30.05 in
Visibility 10.0 miles
Clouds Overcast 8000 ft
Heat Index 81 °F
Dew Point 64 °F
Humidity 58%
Rainfall 0.00 in
Snow Depth Not available.
6:42 AM 8:32 PM
Waning Crescent, 22% visible
METAR KXBP 291335Z AUTO 00000KT 10SM OVC080 24/24 A3005 RMK AO2 LTG DSNT N T02360236
Pressure 30.05 in
Visibility 10.0 miles
Clouds Overcast 8000 ft
Heat Index 81 °F
Dew Point 64 °F
Humidity 58%
Rainfall 0.00 in
Snow Depth Not available.
6:42 AM 8:32 PM
Waning Crescent, 22% visible
METAR KXBP 291335Z AUTO 00000KT 10SM OVC080 24/24 A3005 RMK AO2 LTG DSNT N T02360236

10-Day Weather Forecast

Almanac

Astronomy

Jul. 29, 2016 Rise Set
Actual Time
Civil Twilight
Nautical Twilight
Astronomical Twilight
Moon
Length of Visible Light
Length of Day
Tomorrow will be .
, % of the Moon is Illuminated

Today's Extremes

State Highs State Lows

Community

WunderPhotos

Upload Photos

1,928,340 photos uploaded!

WunderBlog® & News

Nearby

Air Quality

  Air Quality AQ Index Pollutant
Not available.

Snow Depth

Station Depth Elevation

Earthquake Activity

City Distance Mag. Time & Date
Minimum magnitude displayed is 2.5.

Coastal Water Temperatures

Place Temperature

Stations

Nearby Weather Stations

Station Location Temp. Windchill Dew Point Humidity Wind Precip. Elev Updated Type
                   

Watches & Warnings

There are currently no watches in effect.